sensor_id;sensor_type;location;lat;lon;timestamp;pressure;altitude;pressure_sealevel;temperature;humidity
18765;BME280;9511;54.242;12.448;2023-06-14T03:05:59;101862.66;;;10.49;99.88
18765;BME280;9511;54.242;12.448;2023-06-14T03:08:32;101870.75;;;10.52;99.76
18765;BME280;9511;54.242;12.448;2023-06-14T03:11:07;101870.69;;;10.51;100.00
18765;BME280;9511;54.242;12.448;2023-06-14T03:13:35;101873.44;;;10.54;99.86
18765;BME280;9511;54.242;12.448;2023-06-14T03:16:05;101880.44;;;10.52;99.94
18765;BME280;9511;54.242;12.448;2023-06-14T03:18:36;101875.13;;;10.52;99.60
18765;BME280;9511;54.242;12.448;2023-06-14T03:21:07;101877.09;;;10.56;99.77
18765;BME280;9511;54.242;12.448;2023-06-14T03:23:35;101874.56;;;10.59;99.95
18765;BME280;9511;54.242;12.448;2023-06-14T03:26:03;101864.13;;;10.62;99.70
18765;BME280;9511;54.242;12.448;2023-06-14T03:28:31;101867.88;;;10.67;99.66
18765;BME280;9511;54.242;12.448;2023-06-14T03:30:59;101874.97;;;10.68;99.69
18765;BME280;9511;54.242;12.448;2023-06-14T03:33:30;101879.41;;;10.69;99.29
18765;BME280;9511;54.242;12.448;2023-06-14T03:35:58;101889.47;;;10.78;99.40
18765;BME280;9511;54.242;12.448;2023-06-14T03:38:28;101882.63;;;10.83;99.33
18765;BME280;9511;54.242;12.448;2023-06-14T03:40:56;101881.91;;;10.87;99.05
18765;BME280;9511;54.242;12.448;2023-06-14T03:43:23;101891.84;;;10.93;99.19
18765;BME280;9511;54.242;12.448;2023-06-14T03:45:51;101885.13;;;11.01;99.37
18765;BME280;9511;54.242;12.448;2023-06-14T03:48:19;101889.78;;;11.06;99.91
18765;BME280;9511;54.242;12.448;2023-06-14T03:50:47;101884.91;;;11.17;100.00
18765;BME280;9511;54.242;12.448;2023-06-14T03:53:14;101878.22;;;11.25;100.00
18765;BME280;9511;54.242;12.448;2023-06-14T03:55:47;101882.03;;;11.33;100.00
18765;BME280;9511;54.242;12.448;2023-06-14T03:58:15;101885.72;;;11.37;100.00
18765;BME280;9511;54.242;12.448;2023-06-14T04:00:43;101881.63;;;11.45;100.00
18765;BME280;9511;54.242;12.448;2023-06-14T04:03:11;101884.75;;;11.57;100.00
18765;BME280;9511;54.242;12.448;2023-06-14T04:05:39;101890.38;;;11.65;100.00
18765;BME280;9511;54.242;12.448;2023-06-14T04:08:08;101888.06;;;11.74;100.00
18765;BME280;9511;54.242;12.448;2023-06-14T04:10:36;101885.81;;;11.83;100.00
18765;BME280;9511;54.242;12.448;2023-06-14T04:13:06;101886.03;;;11.89;100.00
18765;BME280;9511;54.242;12.448;2023-06-14T04:15:33;101880.09;;;11.96;100.00
18765;BME280;9511;54.242;12.448;2023-06-14T04:18:01;101891.16;;;12.09;99.42
18765;BME280;9511;54.242;12.448;2023-06-14T04:20:29;101883.56;;;12.18;99.20
18765;BME280;9511;54.242;12.448;2023-06-14T04:22:56;101880.31;;;12.27;98.51
18765;BME280;9511;54.242;12.448;2023-06-14T04:25:24;101885.94;;;12.34;98.54
18765;BME280;9511;54.242;12.448;2023-06-14T04:27:54;101882.97;;;12.51;97.80
18765;BME280;9511;54.242;12.448;2023-06-14T04:30:25;101889.66;;;12.65;98.09
18765;BME280;9511;54.242;12.448;2023-06-14T04:32:55;101897.13;;;12.76;97.93
18765;BME280;9511;54.242;12.448;2023-06-14T04:35:22;101884.19;;;12.86;97.23
18765;BME280;9511;54.242;12.448;2023-06-14T04:37:52;101889.94;;;12.99;96.41
18765;BME280;9511;54.242;12.448;2023-06-14T04:40:21;101882.38;;;13.12;96.01
18765;BME280;9511;54.242;12.448;2023-06-14T04:42:49;101889.94;;;13.25;95.78
18765;BME280;9511;54.242;12.448;2023-06-14T04:45:18;101895.72;;;13.40;95.46
18765;BME280;9511;54.242;12.448;2023-06-14T04:47:47;101895.22;;;13.52;94.55
18765;BME280;9511;54.242;12.448;2023-06-14T04:50:15;101883.97;;;13.61;94.28
18765;BME280;9511;54.242;12.448;2023-06-14T04:52:44;101891.16;;;13.65;93.39
18765;BME280;9511;54.242;12.448;2023-06-14T04:55:11;101882.56;;;13.73;93.83
18765;BME280;9511;54.242;12.448;2023-06-14T04:57:39;101890.84;;;13.82;93.57
18765;BME280;9511;54.242;12.448;2023-06-14T05:00:09;101895.53;;;13.91;93.17
18765;BME280;9511;54.242;12.448;2023-06-14T05:02:37;101898.69;;;14.08;93.42
18765;BME280;9511;54.242;12.448;2023-06-14T05:05:08;101913.97;;;14.15;92.19
18765;BME280;9511;54.242;12.448;2023-06-14T05:07:35;101905.69;;;14.36;92.23
18765;BME280;9511;54.242;12.448;2023-06-14T05:10:03;101911.16;;;14.41;91.29
18765;BME280;9511;54.242;12.448;2023-06-14T05:12:32;101909.66;;;14.50;90.90
18765;BME280;9511;54.242;12.448;2023-06-14T05:15:00;101903.69;;;14.59;90.75
18765;BME280;9511;54.242;12.448;2023-06-14T05:17:28;101912.78;;;14.67;90.08
18765;BME280;9511;54.242;12.448;2023-06-14T05:19:55;101908.63;;;14.78;89.92
18765;BME280;9511;54.242;12.448;2023-06-14T05:22:24;101908.00;;;14.87;89.59
18765;BME280;9511;54.242;12.448;2023-06-14T05:24:51;101915.41;;;14.99;89.21
18765;BME280;9511;54.242;12.448;2023-06-14T05:27:19;101913.94;;;15.11;88.71
18765;BME280;9511;54.242;12.448;2023-06-14T05:29:46;101907.09;;;15.23;88.47
18765;BME280;9511;54.242;12.448;2023-06-14T05:32:13;101912.72;;;15.35;88.46
18765;BME280;9511;54.242;12.448;2023-06-14T05:34:41;101909.41;;;15.45;87.77
18765;BME280;9511;54.242;12.448;2023-06-14T05:37:09;101907.91;;;15.56;87.50
18765;BME280;9511;54.242;12.448;2023-06-14T05:39:37;101912.75;;;15.73;87.13
18765;BME280;9511;54.242;12.448;2023-06-14T05:42:05;101914.59;;;15.77;86.36
18765;BME280;9511;54.242;12.448;2023-06-14T05:44:33;101920.06;;;15.81;85.82
18765;BME280;9511;54.242;12.448;2023-06-14T05:47:00;101922.22;;;15.99;85.66
18765;BME280;9511;54.242;12.448;2023-06-14T05:49:27;101921.69;;;16.15;85.28
18765;BME280;9511;54.242;12.448;2023-06-14T05:51:55;101926.38;;;16.27;84.53
18765;BME280;9511;54.242;12.448;2023-06-14T05:54:22;101924.91;;;16.43;83.70
18765;BME280;9511;54.242;12.448;2023-06-14T05:56:51;101924.34;;;16.59;83.13
18765;BME280;9511;54.242;12.448;2023-06-14T05:59:18;101926.38;;;16.71;82.69
18765;BME280;9511;54.242;12.448;2023-06-14T06:01:45;101931.66;;;16.69;82.12
18765;BME280;9511;54.242;12.448;2023-06-14T06:04:13;101926.59;;;16.82;82.36
18765;BME280;9511;54.242;12.448;2023-06-14T06:06:40;101932.84;;;16.84;82.11
18765;BME280;9511;54.242;12.448;2023-06-14T06:09:07;101937.53;;;16.97;81.64
18765;BME280;9511;54.242;12.448;2023-06-14T06:11:34;101941.34;;;17.11;80.79
18765;BME280;9511;54.242;12.448;2023-06-14T06:14:03;101936.22;;;17.23;80.58
18765;BME280;9511;54.242;12.448;2023-06-14T06:16:30;101935.50;;;17.34;80.49
18765;BME280;9511;54.242;12.448;2023-06-14T06:18:58;101942.88;;;17.50;79.45
18765;BME280;9511;54.242;12.448;2023-06-14T06:21:26;101935.88;;;17.58;79.00
18765;BME280;9511;54.242;12.448;2023-06-14T06:23:54;101942.25;;;17.68;78.56
18765;BME280;9511;54.242;12.448;2023-06-14T06:26:21;101940.75;;;17.84;78.26
18765;BME280;9511;54.242;12.448;2023-06-14T06:28:49;101940.94;;;17.99;78.24
18765;BME280;9511;54.242;12.448;2023-06-14T06:31:17;101939.28;;;18.09;77.09
18765;BME280;9511;54.242;12.448;2023-06-14T06:33:45;101941.19;;;18.17;76.62
18765;BME280;9511;54.242;12.448;2023-06-14T06:36:12;101940.41;;;18.24;76.53
18765;BME280;9511;54.242;12.448;2023-06-14T06:38:39;101946.75;;;18.33;76.53
18765;BME280;9511;54.242;12.448;2023-06-14T06:41:06;101944.97;;;18.35;75.47
18765;BME280;9511;54.242;12.448;2023-06-14T06:43:34;101944.06;;;18.34;75.31
18765;BME280;9511;54.242;12.448;2023-06-14T06:46:02;101947.72;;;18.41;75.03
18765;BME280;9511;54.242;12.448;2023-06-14T06:48:30;101946.94;;;18.48;75.28
18765;BME280;9511;54.242;12.448;2023-06-14T06:50:58;101949.63;;;18.51;75.73
18765;BME280;9511;54.242;12.448;2023-06-14T06:53:25;101952.34;;;18.54;75.46
18765;BME280;9511;54.242;12.448;2023-06-14T06:55:52;101952.50;;;18.66;75.18
18765;BME280;9511;54.242;12.448;2023-06-14T06:58:20;101949.91;;;18.71;74.37
18765;BME280;9511;54.242;12.448;2023-06-14T07:00:48;101956.22;;;18.77;73.53
18765;BME280;9511;54.242;12.448;2023-06-14T07:03:15;101946.56;;;18.93;73.68
18765;BME280;9511;54.242;12.448;2023-06-14T07:05:45;101946.69;;;19.07;73.84
18765;BME280;9511;54.242;12.448;2023-06-14T07:08:12;101951.97;;;19.01;72.53
18765;BME280;9511;54.242;12.448;2023-06-14T07:10:39;101949.34;;;19.04;71.11
18765;BME280;9511;54.242;12.448;2023-06-14T07:13:07;101945.00;;;19.18;70.91
18765;BME280;9511;54.242;12.448;2023-06-14T07:15:34;101944.22;;;19.34;70.41
18765;BME280;9511;54.242;12.448;2023-06-14T07:18:02;101939.84;;;19.44;70.56
18765;BME280;9511;54.242;12.448;2023-06-14T07:20:29;101941.69;;;19.53;70.05
18765;BME280;9511;54.242;12.448;2023-06-14T07:22:58;101947.16;;;19.63;69.61
18765;BME280;9511;54.242;12.448;2023-06-14T07:25:26;101944.47;;;19.65;68.49
18765;BME280;9511;54.242;12.448;2023-06-14T07:27:53;101949.84;;;19.65;67.88
18765;BME280;9511;54.242;12.448;2023-06-14T07:30:20;101943.72;;;19.84;68.04
18765;BME280;9511;54.242;12.448;2023-06-14T07:32:51;101950.00;;;19.89;67.82
18765;BME280;9511;54.242;12.448;2023-06-14T07:35:19;101950.09;;;20.05;67.81
18765;BME280;9511;54.242;12.448;2023-06-14T07:37:46;101950.16;;;20.23;67.92
18765;BME280;9511;54.242;12.448;2023-06-14T07:40:15;101947.53;;;20.35;67.40
18765;BME280;9511;54.242;12.448;2023-06-14T07:42:42;101954.72;;;20.36;66.59
18765;BME280;9511;54.242;12.448;2023-06-14T07:45:13;101946.66;;;20.39;65.21
18765;BME280;9511;54.242;12.448;2023-06-14T07:47:40;101949.41;;;20.50;64.66
18765;BME280;9511;54.242;12.448;2023-06-14T07:50:08;101955.75;;;20.74;62.75
18765;BME280;9511;54.242;12.448;2023-06-14T07:52:38;101949.44;;;20.64;60.62
18765;BME280;9511;54.242;12.448;2023-06-14T07:55:06;101952.16;;;20.73;60.46
18765;BME280;9511;54.242;12.448;2023-06-14T07:57:34;101954.91;;;20.88;59.58
18765;BME280;9511;54.242;12.448;2023-06-14T08:00:03;101953.09;;;21.09;58.71
18765;BME280;9511;54.242;12.448;2023-06-14T08:02:38;101952.19;;;20.79;57.93
18765;BME280;9511;54.242;12.448;2023-06-14T08:05:06;101957.50;;;20.64;57.18
18765;BME280;9511;54.242;12.448;2023-06-14T08:07:34;101952.16;;;20.67;57.64
18765;BME280;9511;54.242;12.448;2023-06-14T08:10:01;101954.91;;;21.02;59.38
18765;BME280;9511;54.242;12.448;2023-06-14T08:12:28;101951.38;;;21.31;55.28
18765;BME280;9511;54.242;12.448;2023-06-14T08:14:57;101950.47;;;21.52;50.57
18765;BME280;9511;54.242;12.448;2023-06-14T08:17:24;101940.50;;;21.84;49.64
18765;BME280;9511;54.242;12.448;2023-06-14T08:19:52;101943.09;;;22.24;47.93
18765;BME280;9511;54.242;12.448;2023-06-14T08:22:21;101946.69;;;22.29;46.26
18765;BME280;9511;54.242;12.448;2023-06-14T08:24:50;101936.88;;;22.04;45.41
18765;BME280;9511;54.242;12.448;2023-06-14T08:27:19;101942.31;;;21.73;44.49
18765;BME280;9511;54.242;12.448;2023-06-14T08:29:46;101942.31;;;21.84;46.12
18765;BME280;9511;54.242;12.448;2023-06-14T08:32:15;101938.69;;;21.95;46.31
18765;BME280;9511;54.242;12.448;2023-06-14T08:34:42;101947.63;;;22.19;45.99
18765;BME280;9511;54.242;12.448;2023-06-14T08:37:10;101949.38;;;22.37;46.75
18765;BME280;9511;54.242;12.448;2023-06-14T08:39:37;101949.25;;;22.52;41.13
18765;BME280;9511;54.242;12.448;2023-06-14T08:42:05;101939.06;;;23.04;40.50
18765;BME280;9511;54.242;12.448;2023-06-14T08:44:34;101942.44;;;23.34;42.67
18765;BME280;9511;54.242;12.448;2023-06-14T08:47:01;101952.31;;;23.33;45.46
18765;BME280;9511;54.242;12.448;2023-06-14T08:49:31;101951.72;;;22.96;45.67
18765;BME280;9511;54.242;12.448;2023-06-14T08:51:59;101961.81;;;22.59;46.25
18765;BME280;9511;54.242;12.448;2023-06-14T08:54:28;101953.81;;;22.41;44.58
18765;BME280;9511;54.242;12.448;2023-06-14T08:56:56;101951.22;;;22.25;42.19
18765;BME280;9511;54.242;12.448;2023-06-14T08:59:25;101960.19;;;22.21;43.47
18765;BME280;9511;54.242;12.448;2023-06-14T09:01:53;101955.75;;;22.04;43.01
18765;BME280;9511;54.242;12.448;2023-06-14T09:04:21;101957.44;;;22.35;42.86
18765;BME280;9511;54.242;12.448;2023-06-14T09:06:50;101963.59;;;22.66;42.20
18765;BME280;9511;54.242;12.448;2023-06-14T09:09:19;101954.69;;;22.50;40.76
18765;BME280;9511;54.242;12.448;2023-06-14T09:11:47;101954.53;;;22.73;42.33
18765;BME280;9511;54.242;12.448;2023-06-14T09:14:14;101952.84;;;22.57;40.63
18765;BME280;9511;54.242;12.448;2023-06-14T09:16:41;101957.25;;;22.69;40.01
18765;BME280;9511;54.242;12.448;2023-06-14T09:19:13;101947.25;;;22.92;39.82
18765;BME280;9511;54.242;12.448;2023-06-14T09:21:41;101944.41;;;23.14;40.55
18765;BME280;9511;54.242;12.448;2023-06-14T09:24:13;101949.63;;;23.33;39.61
18765;BME280;9511;54.242;12.448;2023-06-14T09:26:41;101936.94;;;23.46;38.10
18765;BME280;9511;54.242;12.448;2023-06-14T09:29:09;101934.41;;;23.25;38.44
18765;BME280;9511;54.242;12.448;2023-06-14T09:31:36;101944.50;;;22.98;38.46
18765;BME280;9511;54.242;12.448;2023-06-14T09:34:04;101951.63;;;23.12;38.54
18765;BME280;9511;54.242;12.448;2023-06-14T09:36:32;101941.53;;;23.32;38.28
18765;BME280;9511;54.242;12.448;2023-06-14T09:39:01;101946.25;;;23.09;38.02
18765;BME280;9511;54.242;12.448;2023-06-14T09:41:34;101938.00;;;23.28;37.55
18765;BME280;9511;54.242;12.448;2023-06-14T09:44:03;101934.22;;;23.46;37.76
18765;BME280;9511;54.242;12.448;2023-06-14T09:46:32;101934.03;;;23.68;38.79
18765;BME280;9511;54.242;12.448;2023-06-14T09:49:02;101938.25;;;23.93;40.35
18765;BME280;9511;54.242;12.448;2023-06-14T09:51:30;101947.22;;;23.98;39.10
18765;BME280;9511;54.242;12.448;2023-06-14T09:53:59;101930.84;;;24.10;38.49
18765;BME280;9511;54.242;12.448;2023-06-14T09:56:28;101937.25;;;24.03;38.03
18765;BME280;9511;54.242;12.448;2023-06-14T09:58:59;101936.16;;;24.18;38.54
18765;BME280;9511;54.242;12.448;2023-06-14T10:01:27;101924.34;;;24.25;37.55
18765;BME280;9511;54.242;12.448;2023-06-14T10:04:02;101913.47;;;24.30;38.11
18765;BME280;9511;54.242;12.448;2023-06-14T10:06:30;101927.97;;;24.24;37.45
18765;BME280;9511;54.242;12.448;2023-06-14T10:08:59;101922.50;;;24.29;36.93
18765;BME280;9511;54.242;12.448;2023-06-14T10:11:27;101926.81;;;24.45;36.63
18765;BME280;9511;54.242;12.448;2023-06-14T10:13:55;101921.53;;;24.38;37.01
18765;BME280;9511;54.242;12.448;2023-06-14T10:16:30;101934.09;;;25.00;36.93
18765;BME280;9511;54.242;12.448;2023-06-14T10:19:11;101919.19;;;24.75;35.88
18765;BME280;9511;54.242;12.448;2023-06-14T10:21:45;101916.63;;;25.23;36.31
18765;BME280;9511;54.242;12.448;2023-06-14T10:24:17;101916.72;;;25.16;36.11
18765;BME280;9511;54.242;12.448;2023-06-14T10:26:54;101921.19;;;25.21;34.81
18765;BME280;9511;54.242;12.448;2023-06-14T10:29:23;101919.75;;;25.49;34.93
18765;BME280;9511;54.242;12.448;2023-06-14T10:31:56;101914.91;;;25.19;34.04
18765;BME280;9511;54.242;12.448;2023-06-14T10:34:25;101917.56;;;25.20;34.32
18765;BME280;9511;54.242;12.448;2023-06-14T10:37:04;101919.09;;;25.36;34.27
18765;BME280;9511;54.242;12.448;2023-06-14T10:39:38;101923.41;;;25.48;34.13
18765;BME280;9511;54.242;12.448;2023-06-14T10:42:06;101912.16;;;25.69;34.28
18765;BME280;9511;54.242;12.448;2023-06-14T10:44:38;101919.38;;;25.71;33.41
18765;BME280;9511;54.242;12.448;2023-06-14T10:47:20;101917.63;;;25.66;33.01
18765;BME280;9511;54.242;12.448;2023-06-14T10:49:50;101926.69;;;25.65;32.83
18765;BME280;9511;54.242;12.448;2023-06-14T10:52:22;101915.69;;;25.76;32.44
18765;BME280;9511;54.242;12.448;2023-06-14T10:55:15;101917.78;;;25.59;33.16
18765;BME280;9511;54.242;12.448;2023-06-14T10:57:46;101912.28;;;25.63;33.05
18765;BME280;9511;54.242;12.448;2023-06-14T11:00:18;101912.31;;;26.08;33.52
18765;BME280;9511;54.242;12.448;2023-06-14T11:03:16;101918.75;;;26.04;31.76
18765;BME280;9511;54.242;12.448;2023-06-14T11:05:49;101908.00;;;25.50;32.41
18765;BME280;9511;54.242;12.448;2023-06-14T11:08:40;101906.19;;;25.97;32.59
18765;BME280;9511;54.242;12.448;2023-06-14T11:11:13;101900.34;;;25.74;32.18
18765;BME280;9511;54.242;12.448;2023-06-14T11:13:43;101889.94;;;25.99;31.81
18765;BME280;9511;54.242;12.448;2023-06-14T11:16:13;101893.91;;;25.79;31.47
18765;BME280;9511;54.242;12.448;2023-06-14T11:18:44;101895.16;;;25.61;30.96
18765;BME280;9511;54.242;12.448;2023-06-14T11:21:15;101896.19;;;26.01;32.19
18765;BME280;9511;54.242;12.448;2023-06-14T11:23:49;101892.63;;;26.42;32.03
18765;BME280;9511;54.242;12.448;2023-06-14T11:26:24;101891.13;;;26.26;32.58
18765;BME280;9511;54.242;12.448;2023-06-14T11:28:55;101892.94;;;26.27;30.38
18765;BME280;9511;54.242;12.448;2023-06-14T11:31:23;101896.38;;;26.35;31.85
18765;BME280;9511;54.242;12.448;2023-06-14T11:33:53;101888.81;;;26.88;31.14
18765;BME280;9511;54.242;12.448;2023-06-14T11:36:21;101892.28;;;26.57;31.41
18765;BME280;9511;54.242;12.448;2023-06-14T11:38:48;101887.59;;;26.64;31.71
18765;BME280;9511;54.242;12.448;2023-06-14T11:41:16;101888.13;;;26.41;31.56
18765;BME280;9511;54.242;12.448;2023-06-14T11:43:43;101899.63;;;26.52;32.00
18765;BME280;9511;54.242;12.448;2023-06-14T11:46:14;101888.41;;;26.67;31.28
18765;BME280;9511;54.242;12.448;2023-06-14T11:48:42;101880.97;;;26.76;30.76
18765;BME280;9511;54.242;12.448;2023-06-14T11:51:12;101883.72;;;27.11;30.89
18765;BME280;9511;54.242;12.448;2023-06-14T11:53:40;101878.00;;;26.86;30.59
18765;BME280;9511;54.242;12.448;2023-06-14T11:56:09;101886.56;;;26.69;30.06
18765;BME280;9511;54.242;12.448;2023-06-14T11:58:37;101882.69;;;26.80;29.64
18765;BME280;9511;54.242;12.448;2023-06-14T12:01:04;101882.94;;;27.06;29.74
18765;BME280;9511;54.242;12.448;2023-06-14T12:03:32;101873.06;;;27.38;29.33
18765;BME280;9511;54.242;12.448;2023-06-14T12:06:05;101882.25;;;27.66;29.43
18765;BME280;9511;54.242;12.448;2023-06-14T12:08:35;101877.59;;;27.71;28.73
18765;BME280;9511;54.242;12.448;2023-06-14T12:11:05;101867.09;;;27.23;28.70
18765;BME280;9511;54.242;12.448;2023-06-14T12:13:37;101879.16;;;27.13;29.77
18765;BME280;9511;54.242;12.448;2023-06-14T12:16:06;101873.25;;;27.64;28.41
18765;BME280;9511;54.242;12.448;2023-06-14T12:18:34;101864.03;;;27.02;28.12
18765;BME280;9511;54.242;12.448;2023-06-14T12:21:04;101864.34;;;27.59;28.76
18765;BME280;9511;54.242;12.448;2023-06-14T12:23:42;101868.41;;;27.43;28.57
18765;BME280;9511;54.242;12.448;2023-06-14T12:26:10;101865.41;;;27.19;29.04
18765;BME280;9511;54.242;12.448;2023-06-14T12:28:40;101865.97;;;27.32;29.35
18765;BME280;9511;54.242;12.448;2023-06-14T12:31:08;101873.13;;;27.36;29.65
18765;BME280;9511;54.242;12.448;2023-06-14T12:33:35;101866.00;;;27.63;29.26
18765;BME280;9511;54.242;12.448;2023-06-14T12:36:03;101872.50;;;27.59;28.65
18765;BME280;9511;54.242;12.448;2023-06-14T12:38:32;101866.31;;;27.85;28.73
18765;BME280;9511;54.242;12.448;2023-06-14T12:41:01;101871.78;;;27.18;28.71
18765;BME280;9511;54.242;12.448;2023-06-14T12:43:28;101868.06;;;27.55;29.77
18765;BME280;9511;54.242;12.448;2023-06-14T12:45:55;101854.50;;;27.21;29.22
18765;BME280;9511;54.242;12.448;2023-06-14T12:48:23;101868.91;;;27.24;29.07
18765;BME280;9511;54.242;12.448;2023-06-14T12:50:50;101861.81;;;27.17;28.59
18765;BME280;9511;54.242;12.448;2023-06-14T12:53:18;101865.25;;;27.25;29.32
18765;BME280;9511;54.242;12.448;2023-06-14T12:55:46;101872.47;;;27.26;28.73
18765;BME280;9511;54.242;12.448;2023-06-14T12:58:14;101866.00;;;26.95;27.99
18765;BME280;9511;54.242;12.448;2023-06-14T13:00:43;101858.41;;;27.43;28.32
18765;BME280;9511;54.242;12.448;2023-06-14T13:03:10;101860.56;;;27.63;28.53
18765;BME280;9511;54.242;12.448;2023-06-14T13:05:37;101856.50;;;27.79;28.95
18765;BME280;9511;54.242;12.448;2023-06-14T13:08:07;101855.00;;;27.69;28.15
18765;BME280;9511;54.242;12.448;2023-06-14T13:10:35;101851.22;;;27.42;28.54
18765;BME280;9511;54.242;12.448;2023-06-14T13:13:02;101854.22;;;27.64;28.62
18765;BME280;9511;54.242;12.448;2023-06-14T13:15:31;101850.91;;;28.15;28.66
18765;BME280;9511;54.242;12.448;2023-06-14T13:17:58;101853.16;;;28.30;28.72
18765;BME280;9511;54.242;12.448;2023-06-14T13:20:26;101842.56;;;27.92;27.94
18765;BME280;9511;54.242;12.448;2023-06-14T13:22:53;101846.75;;;27.72;28.99
18765;BME280;9511;54.242;12.448;2023-06-14T13:25:21;101843.41;;;27.94;28.97
18765;BME280;9511;54.242;12.448;2023-06-14T13:27:48;101841.34;;;28.33;28.83
18765;BME280;9511;54.242;12.448;2023-06-14T13:30:16;101839.94;;;28.48;28.68
18765;BME280;9511;54.242;12.448;2023-06-14T13:32:44;101838.69;;;28.84;29.10
18765;BME280;9511;54.242;12.448;2023-06-14T13:35:12;101832.09;;;28.65;28.39
18765;BME280;9511;54.242;12.448;2023-06-14T13:37:39;101839.25;;;28.69;29.01
18765;BME280;9511;54.242;12.448;2023-06-14T13:40:07;101832.09;;;28.65;29.96
18765;BME280;9511;54.242;12.448;2023-06-14T13:42:34;101833.41;;;29.08;29.79
18765;BME280;9511;54.242;12.448;2023-06-14T13:45:02;101831.69;;;28.77;28.99
18765;BME280;9511;54.242;12.448;2023-06-14T13:47:30;101837.56;;;28.65;28.86
18765;BME280;9511;54.242;12.448;2023-06-14T13:49:59;101831.69;;;28.51;29.38
18765;BME280;9511;54.242;12.448;2023-06-14T13:52:26;101830.03;;;28.73;29.35
18765;BME280;9511;54.242;12.448;2023-06-14T13:54:53;101832.59;;;28.50;28.76
18765;BME280;9511;54.242;12.448;2023-06-14T13:57:21;101824.81;;;28.94;29.57
18765;BME280;9511;54.242;12.448;2023-06-14T13:59:48;101838.34;;;28.97;29.15
18765;BME280;9511;54.242;12.448;2023-06-14T14:02:16;101831.91;;;28.71;28.53
18765;BME280;9511;54.242;12.448;2023-06-14T14:04:43;101826.59;;;28.09;28.85
18765;BME280;9511;54.242;12.448;2023-06-14T14:07:12;101827.78;;;28.00;29.89
18765;BME280;9511;54.242;12.448;2023-06-14T14:09:39;101836.94;;;28.27;30.27
18765;BME280;9511;54.242;12.448;2023-06-14T14:12:09;101826.19;;;28.52;29.79
18765;BME280;9511;54.242;12.448;2023-06-14T14:14:36;101827.47;;;28.41;30.20
18765;BME280;9511;54.242;12.448;2023-06-14T14:17:04;101833.00;;;28.94;29.50
18765;BME280;9511;54.242;12.448;2023-06-14T14:19:32;101832.28;;;28.87;28.63
18765;BME280;9511;54.242;12.448;2023-06-14T14:22:00;101823.03;;;28.93;27.98
18765;BME280;9511;54.242;12.448;2023-06-14T14:24:29;101823.50;;;28.79;29.62
18765;BME280;9511;54.242;12.448;2023-06-14T14:26:56;101821.09;;;27.83;29.06
18765;BME280;9511;54.242;12.448;2023-06-14T14:29:26;101822.78;;;28.16;29.37
18765;BME280;9511;54.242;12.448;2023-06-14T14:31:55;101833.69;;;28.44;29.79
18765;BME280;9511;54.242;12.448;2023-06-14T14:34:22;101832.22;;;28.89;29.25
18765;BME280;9511;54.242;12.448;2023-06-14T14:36:50;101826.59;;;29.21;29.16
18765;BME280;9511;54.242;12.448;2023-06-14T14:39:17;101819.28;;;29.47;29.52
18765;BME280;9511;54.242;12.448;2023-06-14T14:41:46;101817.31;;;28.74;30.03
18765;BME280;9511;54.242;12.448;2023-06-14T14:44:13;101821.81;;;28.75;30.09
18765;BME280;9511;54.242;12.448;2023-06-14T14:46:41;101825.09;;;28.84;30.53
18765;BME280;9511;54.242;12.448;2023-06-14T14:49:09;101823.41;;;28.54;30.70
18765;BME280;9511;54.242;12.448;2023-06-14T14:51:36;101820.63;;;28.26;31.15
18765;BME280;9511;54.242;12.448;2023-06-14T14:54:04;101820.59;;;28.57;30.54
18765;BME280;9511;54.242;12.448;2023-06-14T14:56:32;101829.97;;;29.03;29.88
18765;BME280;9511;54.242;12.448;2023-06-14T14:59:02;101828.44;;;28.66;29.44
18765;BME280;9511;54.242;12.448;2023-06-14T15:01:30;101826.78;;;28.62;29.45
18765;BME280;9511;54.242;12.448;2023-06-14T15:03:57;101822.28;;;28.88;29.22
18765;BME280;9511;54.242;12.448;2023-06-14T15:06:24;101824.25;;;28.26;30.81
18765;BME280;9511;54.242;12.448;2023-06-14T15:08:52;101819.63;;;28.84;31.01
18765;BME280;9511;54.242;12.448;2023-06-14T15:11:19;101822.75;;;29.00;30.10
18765;BME280;9511;54.242;12.448;2023-06-14T15:13:46;101823.16;;;28.88;30.15
18765;BME280;9511;54.242;12.448;2023-06-14T15:16:16;101822.47;;;28.81;30.19
18765;BME280;9511;54.242;12.448;2023-06-14T15:18:43;101826.44;;;29.24;29.19
18765;BME280;9511;54.242;12.448;2023-06-14T15:21:11;101824.00;;;29.42;29.74
18765;BME280;9511;54.242;12.448;2023-06-14T15:23:39;101810.44;;;29.40;30.29
18765;BME280;9511;54.242;12.448;2023-06-14T15:26:06;101811.97;;;29.49;29.82
18765;BME280;9511;54.242;12.448;2023-06-14T15:28:33;101813.28;;;29.62;29.71
18765;BME280;9511;54.242;12.448;2023-06-14T15:31:01;101817.34;;;29.25;29.55
18765;BME280;9511;54.242;12.448;2023-06-14T15:33:30;101815.38;;;29.29;29.65
18765;BME280;9511;54.242;12.448;2023-06-14T15:35:57;101817.69;;;29.16;29.23
18765;BME280;9511;54.242;12.448;2023-06-14T15:38:24;101818.41;;;29.21;29.25
18765;BME280;9511;54.242;12.448;2023-06-14T15:40:52;101815.00;;;29.65;28.78
18765;BME280;9511;54.242;12.448;2023-06-14T15:43:25;101809.50;;;29.41;28.96
18765;BME280;9511;54.242;12.448;2023-06-14T15:45:53;101804.06;;;29.66;27.95
18765;BME280;9511;54.242;12.448;2023-06-14T15:48:20;101812.34;;;30.10;28.11
18765;BME280;9511;54.242;12.448;2023-06-14T15:50:49;101800.59;;;29.36;28.06
18765;BME280;9511;54.242;12.448;2023-06-14T15:53:16;101804.53;;;29.54;27.79
18765;BME280;9511;54.242;12.448;2023-06-14T15:55:44;101804.41;;;29.80;28.44
18765;BME280;9511;54.242;12.448;2023-06-14T15:58:11;101801.75;;;29.79;27.86
18765;BME280;9511;54.242;12.448;2023-06-14T16:00:38;101796.28;;;30.26;28.17
18765;BME280;9511;54.242;12.448;2023-06-14T16:03:06;101802.56;;;30.50;27.99